Time,TemperatureF,DewpointF,PressureIn,WindDirection,WindDirectionDegrees,WindSpeedMPH,WindSpeedGustMPH,Humidity,HourlyPrecipIn,Conditions,Clouds,dailyrainin,SoftwareType,DateUTC
2013-07-24 00:00:00,77.5,69.4,29.76,NNW,333,0.0,14.7,76,0.01,,OVC095,2.04,VWS V14.01,2013-07-24 04:00:00,
2013-07-24 03:57:00,77.9,70.2,29.75,NNW,333,0.0,14.7,77,0.01,,OVC095,7.79,VWS V14.01,2013-07-24 07:57:00,
2013-07-24 10:07:00,77.4,69.3,29.76,NNW,333,0.0,14.7,76,0.00,,OVC095,8.29,VWS V14.01,2013-07-24 14:07:00,
2013-07-24 11:44:00,76.8,70.5,29.76,NNW,333,0.0,0.0,81,0.00,,OVC095,0.01,VWS V14.01,2013-07-24 15:44:00,
2013-07-24 11:45:00,77.0,70.4,29.76,NNW,333,0.0,0.0,80,0.01,,OVC095,0.01,VWS V14.01,2013-07-24 15:45:00,
2013-07-24 11:47:00,77.2,70.0,29.76,NNW,333,0.0,0.0,79,0.01,,OVC095,0.01,VWS V14.01,2013-07-24 15:47:00,
2013-07-24 11:52:00,77.5,71.2,29.76,NNW,333,0.0,0.0,81,0.01,,OVC095,0.01,VWS V14.01,2013-07-24 15:52:00,
2013-07-24 11:57:00,77.9,70.2,29.75,NNW,333,0.0,14.7,77,0.01,,OVC095,0.01,VWS V14.01,2013-07-24 15:57:00,
2013-07-24 12:02:00,78.1,70.2,29.76,NNW,333,0.0,14.7,77,0.01,,OVC095,0.01,VWS V14.01,2013-07-24 16:02:00,
2013-07-24 12:11:00,78.1,69.3,29.77,SSW,200,0.0,0.0,74,0.00,,OVC095,0.01,VWS V14.01,2013-07-24 16:11:00,
2013-07-24 12:16:00,78.2,68.1,29.77,WSW,238,0.0,8.9,71,0.00,,OVC095,0.01,VWS V14.01,2013-07-24 16:16:00,
2013-07-24 12:21:00,78.7,68.4,29.76,NE,38,0.0,8.9,71,0.00,,OVC095,0.01,VWS V14.01,2013-07-24 16:21:00,
2013-07-24 12:26:00,79.0,71.6,29.76,NE,38,0.0,0.0,78,0.00,,OVC095,0.01,VWS V14.01,2013-07-24 16:26:00,
2013-07-24 12:31:00,78.9,69.6,29.76,NE,38,0.0,0.0,73,0.00,,OVC095,0.01,VWS V14.01,2013-07-24 16:31:00,
2013-07-24 12:36:00,79.0,70.8,29.76,NE,38,0.0,2.3,76,0.00,,OVC095,0.01,VWS V14.01,2013-07-24 16:36:00,
2013-07-24 12:41:00,78.7,71.3,29.76,NE,38,0.0,2.3,78,0.00,,OVC095,0.01,VWS V14.01,2013-07-24 16:41:00,
2013-07-24 12:46:00,78.2,69.7,29.76,NE,38,0.0,0.0,75,0.00,,OVC095,0.01,VWS V14.01,2013-07-24 16:46:00,
2013-07-24 12:51:00,77.9,68.9,29.77,NE,34,0.0,0.0,74,0.00,,OVC095,0.01,VWS V14.01,2013-07-24 16:51:00,
2013-07-24 12:56:00,77.8,69.1,29.77,NE,34,0.0,0.0,75,0.00,,OVC095,0.01,VWS V14.01,2013-07-24 16:56:00,
2013-07-24 13:02:00,77.7,69.3,29.77,NE,34,0.0,0.0,75,0.00,,OVC042,0.01,VWS V14.01,2013-07-24 17:02:00,
2013-07-24 13:07:00,77.9,69.4,29.76,South,177,0.0,6.8,75,0.00,,OVC042,0.01,VWS V14.01,2013-07-24 17:07:00,
2013-07-24 13:12:00,77.8,69.2,29.76,NE,34,0.0,6.8,75,0.00,,OVC042,0.01,VWS V14.01,2013-07-24 17:12:00,
2013-07-24 13:17:00,78.1,68.9,29.77,SW,224,0.0,6.5,73,0.00,,OVC042,0.01,VWS V14.01,2013-07-24 17:17:00,
2013-07-24 13:22:00,78.3,69.0,29.76,SW,218,0.0,0.0,73,0.00,,OVC042,0.01,VWS V14.01,2013-07-24 17:22:00,
2013-07-24 13:27:00,78.7,70.4,29.77,SW,232,0.0,5.1,76,0.00,,OVC042,0.01,VWS V14.01,2013-07-24 17:27:00,
2013-07-24 13:32:00,78.3,69.7,29.77,North,6,0.0,0.0,75,0.00,,OVC042,0.01,VWS V14.01,2013-07-24 17:32:00,
2013-07-24 13:37:00,77.9,68.8,29.77,NE,51,0.0,7.7,74,0.00,,OVC042,0.01,VWS V14.01,2013-07-24 17:37:00,
2013-07-24 13:42:00,77.4,68.6,29.77,West,266,0.0,0.0,74,0.00,,OVC042,0.01,VWS V14.01,2013-07-24 17:42:00,
2013-07-24 13:47:00,77.5,69.9,29.77,NE,56,0.0,7.4,77,0.00,,OVC042,0.01,VWS V14.01,2013-07-24 17:47:00,
2013-07-24 13:52:00,77.4,68.5,29.77,ENE,65,0.0,0.0,74,0.00,,OVC042,0.01,VWS V14.01,2013-07-24 17:52:00,
2013-07-24 13:58:00,78.0,68.7,29.77,East,97,0.0,6.1,73,0.00,,OVC042,0.01,VWS V14.01,2013-07-24 17:58:00,
2013-07-24 14:03:00,78.3,68.1,29.77,East,97,0.0,0.0,71,0.00,,OVC036,0.01,VWS V14.01,2013-07-24 18:03:00,
2013-07-24 14:08:00,78.2,68.2,29.78,ENE,68,0.0,4.7,71,0.00,,OVC036,0.01,VWS V14.01,2013-07-24 18:08:00,
2013-07-24 14:13:00,78.3,69.0,29.78,NE,52,0.0,0.0,73,0.00,,OVC036,0.01,VWS V14.01,2013-07-24 18:13:00,
2013-07-24 14:18:00,78.0,68.1,29.79,WSW,249,0.0,8.5,72,0.00,,OVC036,0.01,VWS V14.01,2013-07-24 18:18:00,
2013-07-24 14:23:00,78.2,69.6,29.78,ENE,66,4.5,4.5,75,0.00,,OVC036,0.01,VWS V14.01,2013-07-24 18:23:00,
2013-07-24 14:28:00,77.8,68.8,29.79,NNE,20,0.0,6.1,74,0.00,,OVC036,0.01,VWS V14.01,2013-07-24 18:28:00,
2013-07-24 14:33:00,77.4,69.7,29.79,NNE,17,0.0,0.0,77,0.00,,OVC036,0.01,VWS V14.01,2013-07-24 18:33:00,
2013-07-24 14:38:00,77.2,69.6,29.79,NE,39,0.0,6.8,78,0.00,,OVC036,0.01,VWS V14.01,2013-07-24 18:38:00,
2013-07-24 14:43:00,77.1,67.8,29.79,SE,128,4.8,5.7,73,0.00,,OVC036,0.01,VWS V14.01,2013-07-24 18:43:00,
2013-07-24 14:48:00,77.1,68.6,29.79,NNW,346,0.0,6.8,75,0.00,,OVC036,0.01,VWS V14.01,2013-07-24 18:48:00,
2013-07-24 14:53:00,77.0,68.1,29.80,East,79,0.0,0.0,74,0.00,,OVC036,0.01,VWS V14.01,2013-07-24 18:53:00,
2013-07-24 14:58:00,77.0,67.8,29.80,SSE,159,0.0,3.3,73,0.00,,OVC036,0.01,VWS V14.01,2013-07-24 18:58:00,
2013-07-24 15:03:00,76.9,66.7,29.80,SW,236,3.0,7.0,71,0.00,,CLR,0.01,VWS V14.01,2013-07-24 19:03:00,
2013-07-24 15:08:00,77.3,68.3,29.80,South,169,0.0,0.0,74,0.00,,CLR,0.01,VWS V14.01,2013-07-24 19:08:00,
2013-07-24 15:13:00,77.7,68.6,29.80,South,169,0.0,0.0,74,0.00,,CLR,0.01,VWS V14.01,2013-07-24 19:13:00,
2013-07-24 15:18:00,77.4,66.6,29.81,South,169,0.0,0.0,69,0.00,,CLR,0.01,VWS V14.01,2013-07-24 19:18:00,
2013-07-24 15:23:00,77.5,67.3,29.80,North,359,0.0,0.0,71,0.00,,CLR,0.01,VWS V14.01,2013-07-24 19:23:00,
2013-07-24 15:28:00,77.0,66.4,29.80,North,4,0.0,4.4,70,0.00,,CLR,0.01,VWS V14.01,2013-07-24 19:28:00,
2013-07-24 15:33:00,77.0,67.3,29.80,North,4,0.0,0.0,72,0.00,,CLR,0.01,VWS V14.01,2013-07-24 19:33:00,
2013-07-24 15:38:00,77.1,69.0,29.81,North,4,0.0,0.0,76,0.00,,CLR,0.01,VWS V14.01,2013-07-24 19:38:00,
2013-07-24 15:43:00,76.8,67.3,29.81,North,4,0.0,0.0,72,0.00,,CLR,0.01,VWS V14.01,2013-07-24 19:43:00,
2013-07-24 15:49:00,77.1,66.3,29.81,SSE,163,0.0,5.2,69,0.00,,CLR,0.01,VWS V14.01,2013-07-24 19:49:00,
2013-07-24 15:54:00,77.3,66.0,29.80,East,93,0.0,0.0,68,0.00,,CLR,0.01,VWS V14.01,2013-07-24 19:54:00,
2013-07-24 15:59:00,77.8,67.3,29.80,East,93,0.0,0.0,70,0.00,,CLR,0.01,VWS V14.01,2013-07-24 19:59:00,
2013-07-24 16:04:00,78.1,67.6,29.80,East,93,0.0,0.0,70,0.00,,BKN070,0.01,VWS V14.01,2013-07-24 20:04:00,
2013-07-24 16:09:00,77.9,67.3,29.81,East,93,0.0,0.0,70,0.00,,BKN070,0.01,VWS V14.01,2013-07-24 20:09:00,
2013-07-24 16:14:00,77.5,67.1,29.81,East,93,0.0,0.0,70,0.00,,BKN070,0.01,VWS V14.01,2013-07-24 20:14:00,
2013-07-24 16:19:00,77.0,67.4,29.80,East,93,0.0,0.0,72,0.00,,BKN070,0.01,VWS V14.01,2013-07-24 20:19:00,
2013-07-24 16:24:00,76.9,68.2,29.80,East,93,0.0,0.0,74,0.00,,BKN070,0.01,VWS V14.01,2013-07-24 20:24:00,
2013-07-24 16:29:00,76.6,67.3,29.81,East,93,0.0,0.0,73,0.00,,BKN070,0.01,VWS V14.01,2013-07-24 20:29:00,
2013-07-24 16:34:00,76.4,68.0,29.80,East,93,0.0,0.0,75,0.00,,BKN070,0.01,VWS V14.01,2013-07-24 20:34:00,
2013-07-24 16:39:00,76.3,66.5,29.80,East,93,0.0,0.0,72,0.00,,BKN070,0.01,VWS V14.01,2013-07-24 20:39:00,
2013-07-24 16:44:00,76.8,66.4,29.80,East,93,0.0,0.0,70,0.00,,BKN070,0.01,VWS V14.01,2013-07-24 20:44:00,
2013-07-24 16:49:00,77.2,66.1,29.80,East,93,0.0,3.4,69,0.00,,BKN070,0.01,VWS V14.01,2013-07-24 20:49:00,
2013-07-24 16:54:00,77.3,65.5,29.80,East,93,0.0,2.7,67,0.00,,BKN070,0.01,VWS V14.01,2013-07-24 20:54:00,
2013-07-24 16:59:00,77.2,66.1,29.80,East,90,0.0,5.0,69,0.00,,BKN070,0.01,VWS V14.01,2013-07-24 20:59:00,
2013-07-24 17:04:00,77.3,67.6,29.79,East,90,0.0,0.0,72,0.00,,OVC048,0.01,VWS V14.01,2013-07-24 21:04:00,
2013-07-24 17:09:00,77.3,66.6,29.80,East,90,0.0,2.5,70,0.00,,OVC048,0.01,VWS V14.01,2013-07-24 21:09:00,
2013-07-24 17:15:00,77.2,66.2,29.80,East,90,0.0,0.0,69,0.00,,OVC048,0.01,VWS V14.01,2013-07-24 21:15:00,
2013-07-24 17:20:00,77.1,66.4,29.80,SSW,202,0.0,6.0,70,0.00,,OVC048,0.01,VWS V14.01,2013-07-24 21:20:00,
2013-07-24 17:25:00,77.0,65.3,29.80,SSW,202,0.0,4.4,67,0.00,,OVC048,0.01,VWS V14.01,2013-07-24 21:25:00,
2013-07-24 17:30:00,77.0,65.8,29.80,SSW,202,0.0,4.4,68,0.00,,OVC048,0.01,VWS V14.01,2013-07-24 21:30:00,
2013-07-24 17:35:00,77.1,67.8,29.81,SSW,202,0.0,0.0,73,0.00,,OVC048,0.01,VWS V14.01,2013-07-24 21:35:00,
2013-07-24 17:40:00,77.1,68.1,29.81,SSW,202,0.0,0.0,74,0.00,,OVC048,0.01,VWS V14.01,2013-07-24 21:40:00,
2013-07-24 17:45:00,76.6,67.3,29.81,SSW,202,0.0,0.0,73,0.00,,OVC048,0.01,VWS V14.01,2013-07-24 21:45:00,
2013-07-24 17:50:00,76.2,67.3,29.82,SSW,202,0.0,0.0,74,0.00,,OVC048,0.01,VWS V14.01,2013-07-24 21:50:00,
2013-07-24 17:55:00,76.0,68.3,29.82,SSW,202,0.0,0.0,77,0.00,,OVC048,0.01,VWS V14.01,2013-07-24 21:55:00,
2013-07-24 18:00:00,75.9,68.5,29.82,SSW,202,0.0,0.0,78,0.00,,OVC048,0.01,VWS V14.01,2013-07-24 22:00:00,
2013-07-24 18:05:00,75.6,68.6,29.82,SSW,202,0.0,0.0,79,0.00,,FEW043,0.01,VWS V14.01,2013-07-24 22:05:00,
2013-07-24 18:10:00,75.4,68.5,29.82,SSW,202,0.0,0.0,79,0.00,,FEW043,0.01,VWS V14.01,2013-07-24 22:10:00,
2013-07-24 18:15:00,75.3,67.8,29.82,SSW,202,0.0,0.0,78,0.00,,FEW043,0.01,VWS V14.01,2013-07-24 22:15:00,
2013-07-24 18:21:00,75.2,67.5,29.82,SSW,202,0.0,0.0,77,0.00,,FEW043,0.01,VWS V14.01,2013-07-24 22:21:00,
2013-07-24 18:26:00,75.1,67.7,29.82,SSW,202,0.0,0.0,78,0.00,,FEW043,0.01,VWS V14.01,2013-07-24 22:26:00,
2013-07-24 18:31:00,75.1,67.4,29.82,SSW,202,0.0,0.0,77,0.00,,FEW043,0.01,VWS V14.01,2013-07-24 22:31:00,
2013-07-24 18:36:00,75.1,67.9,29.83,SSW,202,0.0,0.0,78,0.00,,FEW043,0.01,VWS V14.01,2013-07-24 22:36:00,
2013-07-24 18:41:00,74.9,67.6,29.83,SSW,202,0.0,0.0,78,0.00,,FEW043,0.01,VWS V14.01,2013-07-24 22:41:00,
2013-07-24 18:46:00,74.7,68.3,29.83,SSW,202,0.0,0.0,80,0.00,,FEW043,0.01,VWS V14.01,2013-07-24 22:46:00,
2013-07-24 18:51:00,74.4,68.1,29.83,SSW,202,0.0,0.0,81,0.00,,FEW043,0.01,VWS V14.01,2013-07-24 22:51:00,
2013-07-24 18:56:00,74.2,67.9,29.84,SSW,202,0.0,0.0,81,0.00,,FEW043,0.01,VWS V14.01,2013-07-24 22:56:00,
2013-07-24 19:02:00,73.9,67.3,29.84,SSW,202,0.0,0.0,80,0.00,,SCT050,0.01,VWS V14.01,2013-07-24 23:02:00,
2013-07-24 19:07:00,73.4,66.5,29.84,SSW,202,0.0,0.0,79,0.00,,SCT050,0.01,VWS V14.01,2013-07-24 23:07:00,
2013-07-24 19:12:00,73.3,67.1,29.85,SSW,202,0.0,0.0,81,0.00,,SCT050,0.01,VWS V14.01,2013-07-24 23:12:00,
2013-07-24 19:17:00,73.3,67.0,29.85,SSW,202,0.0,0.0,81,0.00,,SCT050,0.01,VWS V14.01,2013-07-24 23:17:00,
2013-07-24 19:22:00,73.0,66.4,29.85,SSW,202,0.0,0.0,80,0.00,,SCT050,0.01,VWS V14.01,2013-07-24 23:22:00,
2013-07-24 19:27:00,73.1,67.2,29.85,SSW,202,0.0,0.0,82,0.00,,SCT050,0.01,VWS V14.01,2013-07-24 23:27:00,
2013-07-24 19:32:00,72.8,66.6,29.85,SSW,202,0.0,0.0,81,0.00,,SCT050,0.01,VWS V14.01,2013-07-24 23:32:00,
2013-07-24 19:37:00,72.5,65.8,29.86,SSW,202,0.0,0.0,80,0.00,,SCT050,0.01,VWS V14.01,2013-07-24 23:37:00,
2013-07-24 19:42:00,72.5,66.1,29.86,SSW,202,0.0,0.0,80,0.00,,SCT050,0.01,VWS V14.01,2013-07-24 23:42:00,
2013-07-24 19:47:00,72.2,65.7,29.87,SSW,202,0.0,0.0,80,0.00,,SCT050,0.01,VWS V14.01,2013-07-24 23:47:00,
2013-07-24 19:52:00,72.0,65.1,29.87,SSW,202,0.0,0.0,79,0.00,,SCT050,0.01,VWS V14.01,2013-07-24 23:52:00,
2013-07-24 19:57:00,71.6,63.7,29.87,SSW,202,0.0,0.0,76,0.00,,SCT050,0.01,VWS V14.01,2013-07-24 23:57:00,
2013-07-24 20:02:00,71.6,63.4,29.88,SSW,202,0.0,0.0,75,0.00,,OVC055,0.01,VWS V14.01,2013-07-25 00:02:00,
2013-07-24 20:07:00,71.5,62.8,29.88,SSW,202,0.0,0.0,74,0.00,,OVC055,0.01,VWS V14.01,2013-07-25 00:07:00,
2013-07-24 20:12:00,71.1,62.3,29.88,SSW,202,0.0,0.0,74,0.00,,OVC055,0.01,VWS V14.01,2013-07-25 00:12:00,
2013-07-24 20:18:00,70.9,62.7,29.88,SSW,202,0.0,0.0,75,0.00,,OVC055,0.01,VWS V14.01,2013-07-25 00:18:00,
2013-07-24 20:23:00,70.7,62.5,29.89,SSW,202,0.0,0.0,75,0.00,,OVC055,0.01,VWS V14.01,2013-07-25 00:23:00,
2013-07-24 20:28:00,70.4,61.8,29.89,SSW,202,0.0,0.0,74,0.00,,OVC055,0.01,VWS V14.01,2013-07-25 00:28:00,
2013-07-24 20:33:00,70.3,62.1,29.89,SSW,202,0.0,0.0,75,0.00,,OVC055,0.01,VWS V14.01,2013-07-25 00:33:00,
2013-07-24 20:38:00,70.1,62.2,29.89,SSW,202,0.0,0.0,76,0.00,,OVC055,0.01,VWS V14.01,2013-07-25 00:38:00,
2013-07-24 20:43:00,70.0,62.6,29.90,SSW,202,0.0,0.0,77,0.00,,OVC055,0.01,VWS V14.01,2013-07-25 00:43:00,
2013-07-24 20:48:00,69.7,61.8,29.90,SSW,202,0.0,0.0,76,0.00,,OVC055,0.01,VWS V14.01,2013-07-25 00:48:00,
2013-07-24 20:53:00,69.5,61.7,29.90,SSW,202,0.0,0.0,76,0.00,,OVC055,0.01,VWS V14.01,2013-07-25 00:53:00,
2013-07-24 20:58:00,69.4,62.3,29.91,SSW,202,0.0,0.0,78,0.00,,OVC055,0.01,VWS V14.01,2013-07-25 00:58:00,
2013-07-24 21:03:00,69.3,61.2,29.91,SSW,202,0.0,0.0,75,0.00,,FEW060,0.01,VWS V14.01,2013-07-25 01:03:00,
2013-07-24 21:08:00,69.2,61.2,29.91,SSW,202,0.0,0.0,76,0.00,,FEW060,0.01,VWS V14.01,2013-07-25 01:08:00,
2013-07-24 21:13:00,69.0,59.8,29.92,North,349,0.0,0.0,72,0.00,,FEW060,0.01,VWS V14.01,2013-07-25 01:13:00,
2013-07-24 21:18:00,68.9,59.4,29.92,North,349,0.0,0.0,72,0.00,,FEW060,0.01,VWS V14.01,2013-07-25 01:18:00,
2013-07-24 21:23:00,68.8,59.8,29.92,North,349,0.0,0.0,73,0.00,,FEW060,0.01,VWS V14.01,2013-07-25 01:23:00,
2013-07-24 21:28:00,68.8,60.0,29.92,North,349,0.0,0.0,74,0.00,,FEW060,0.01,VWS V14.01,2013-07-25 01:28:00,
2013-07-24 21:33:00,68.6,59.9,29.92,North,349,0.0,0.0,74,0.00,,FEW060,0.01,VWS V14.01,2013-07-25 01:33:00,
2013-07-24 21:38:00,68.5,59.8,29.93,North,349,0.0,0.0,74,0.00,,FEW060,0.01,VWS V14.01,2013-07-25 01:38:00,
2013-07-24 21:43:00,68.5,59.4,29.93,North,349,0.0,0.0,73,0.00,,FEW060,0.01,VWS V14.01,2013-07-25 01:43:00,
2013-07-24 21:48:00,68.4,59.3,29.93,North,349,0.0,0.0,73,0.00,,FEW060,0.01,VWS V14.01,2013-07-25 01:48:00,
2013-07-24 21:53:00,68.3,59.3,29.94,North,349,0.0,0.0,73,0.00,,FEW060,0.01,VWS V14.01,2013-07-25 01:53:00,
2013-07-24 21:58:00,68.2,59.4,29.94,North,349,0.0,0.0,74,0.00,,FEW060,0.01,VWS V14.01,2013-07-25 01:58:00,
2013-07-24 22:03:00,68.1,59.4,29.94,NW,307,0.0,0.0,74,0.00,,OVC060,0.01,VWS V14.01,2013-07-25 02:03:00,
2013-07-24 22:09:00,67.9,58.8,29.93,NW,307,0.0,0.0,73,0.00,,OVC060,0.01,VWS V14.01,2013-07-25 02:09:00,
2013-07-24 22:14:00,67.8,58.7,29.94,NW,307,0.0,0.0,73,0.00,,OVC060,0.01,VWS V14.01,2013-07-25 02:14:00,
2013-07-24 22:19:00,67.6,59.0,29.94,NW,307,0.0,0.0,74,0.00,,OVC060,0.01,VWS V14.01,2013-07-25 02:19:00,
2013-07-24 22:24:00,67.2,58.1,29.94,NW,307,0.0,0.0,73,0.00,,OVC060,0.01,VWS V14.01,2013-07-25 02:24:00,
2013-07-24 22:29:00,67.0,58.1,29.94,NW,307,0.0,3.4,73,0.00,,OVC060,0.01,VWS V14.01,2013-07-25 02:29:00,
2013-07-24 22:34:00,66.5,57.2,29.94,ENE,60,3.4,4.6,72,0.00,,OVC060,0.01,VWS V14.01,2013-07-25 02:34:00,
2013-07-24 22:39:00,66.4,57.8,29.95,ENE,60,0.0,4.6,74,0.00,,OVC060,0.01,VWS V14.01,2013-07-25 02:39:00,
2013-07-24 22:44:00,66.3,57.9,29.95,ENE,60,0.0,0.0,74,0.00,,OVC060,0.01,VWS V14.01,2013-07-25 02:44:00,
2013-07-24 22:49:00,65.9,56.4,29.95,NE,34,0.0,4.8,72,0.00,,OVC060,0.01,VWS V14.01,2013-07-25 02:49:00,
2013-07-24 22:54:00,65.8,56.6,29.95,NE,34,0.0,0.0,72,0.00,,OVC060,0.01,VWS V14.01,2013-07-25 02:54:00,
2013-07-24 22:59:00,65.7,57.0,29.95,NE,34,0.0,0.0,74,0.00,,OVC060,0.01,VWS V14.01,2013-07-25 02:59:00,
2013-07-24 23:04:00,65.5,56.6,29.95,NE,34,0.0,0.0,73,0.00,,OVC060,0.01,VWS V14.01,2013-07-25 03:04:00,
2013-07-24 23:10:00,65.4,56.9,29.95,NE,34,0.0,0.0,74,0.00,,OVC060,0.01,VWS V14.01,2013-07-25 03:10:00,
2013-07-24 23:15:00,65.2,56.8,29.95,North,10,0.0,3.2,74,0.00,,OVC060,0.01,VWS V14.01,2013-07-25 03:15:00,
2013-07-24 23:20:00,65.1,56.3,29.95,ENE,75,0.0,3.4,73,0.00,,OVC060,0.01,VWS V14.01,2013-07-25 03:20:00,
2013-07-24 23:25:00,65.1,56.6,29.95,North,350,0.0,1.8,74,0.00,,OVC060,0.01,VWS V14.01,2013-07-25 03:25:00,
2013-07-24 23:30:00,65.1,56.3,29.95,ESE,111,0.0,3.5,73,0.00,,OVC060,0.01,VWS V14.01,2013-07-25 03:30:00,
2013-07-24 23:35:00,65.0,56.5,29.95,ESE,104,0.0,7.0,74,0.00,,OVC060,0.01,VWS V14.01,2013-07-25 03:35:00,
2013-07-24 23:40:00,64.9,56.5,29.96,NW,308,0.0,7.0,74,0.00,,OVC060,0.01,VWS V14.01,2013-07-25 03:40:00,
2013-07-24 23:45:00,64.9,56.2,29.96,NW,308,0.0,0.0,73,0.00,,OVC060,0.01,VWS V14.01,2013-07-25 03:45:00,
2013-07-24 23:50:00,64.9,56.7,29.96,NW,308,0.0,0.0,75,0.00,,OVC060,0.01,VWS V14.01,2013-07-25 03:50:00,
2013-07-24 23:56:00,64.7,56.2,29.96,NNE,14,0.0,4.3,74,0.00,,OVC060,0.01,VWS V14.01,2013-07-25 03:56:00,